Flores, Guatemala

11:37 AM CST on December 03, 2016 (GMT -0600)
Melchor de Mencos Airport | | Change Station

Elev 4669 ft 17.07 °N, 89.15 °W | Updated 37 minutes ago

Partly Cloudy
Partly Cloudy
84 °F
Feels Like 90 °F
N
5
Wind Variable Wind from ENE

Today
High -- | Low -- °F
--% Chance of Precip.
Yesterday
High -- | Low -- °F
Precip. -- in
Pressure 29.98 in
Visibility 6.2 miles
Clouds Few 1800 ft
Heat Index 90 °F
Dew Point 72 °F
Humidity 66%
Rainfall 0.00 in
Snow Depth Not available.
6:14 AM 5:24 PM
Waxing Crescent, 16% visible
METAR MGMM 031700Z 06004KT 9999 FEW018 29/22 Q1015 A2997
Pressure 29.98 in
Visibility 6.2 miles
Clouds Few 1800 ft
Heat Index 90 °F
Dew Point 72 °F
Humidity 66%
Rainfall 0.00 in
Snow Depth Not available.
6:14 AM 5:24 PM
Waxing Crescent, 16% visible
METAR MGMM 031700Z 06004KT 9999 FEW018 29/22 Q1015 A2997

10-Day Weather Forecast

No radar image for this location.
×

Almanac

Astronomy

Dec. 03, 2016 Rise Set
Actual Time
Civil Twilight
Nautical Twilight
Astronomical Twilight
Moon
Length of Visible Light
Length of Day
Tomorrow will be .
, % of the Moon is Illuminated

Today's Extremes

Country Highs Country Lows

Community

WunderPhotos

Upload Photos

1,955,427 photos uploaded!

WunderBlog® & News

Nearby

Air Quality

  Air Quality AQ Index Pollutant
Not available.

Snow Depth

Station Depth Elevation

Earthquake Activity

City Distance Mag. Time & Date
Minimum magnitude displayed is 2.5.

Coastal Water Temperatures

Place Temperature

Stations

Nearby Weather Stations

Station Location Temp. Windchill Dew Point Humidity Wind Precip. Elev Updated Type